Terminal Aerodrome Forecast
Issued by NWS Blacksburg, VA

Home | Current Version | Previous Version | Text Only | Print | Product List | Glossary On
Versions: 1 2 3 4 5 6 7 8 9 10 11 12 13 14 15 16 17 18 19 20 21 22 23 24 25 26 27 28 29
000
FTUS41 KRNK 281730
TAFLYH
TAF
KLYH 281730Z 2818/2918 VRB04KT P6SM SCT040 SCT250
     FM282000 VRB04KT P6SM VCTS BKN040CB BKN150
     FM290300 00000KT P6SM SCT060 BKN120
     FM290800 00000KT 3SM BR BKN002
     FM291400 17004KT P6SM SCT025=

USA.gov is the U.S. government's official web portal to all federal, state and local government web resources and services.